Terminal Aerodrome Forecast
Issued by NWS Sterling, VA

Current Version | Previous Version | Text Only | Print | Product List | Glossary Off
Versions: 1 2 3 4 5 6 7 8 9 10 11 12 13 14 15 16 17 18 19 20 21 22 23 24

503
FTUS41 KLWX 141437 AAA
TAFDCA
TAF AMD
KDCA 141437Z 1415/1518 30015G25KT P6SM BKN050
     FM141700 32012G22KT P6SM SCT050 SCT200
     FM142200 33010KT P6SM BKN200
     FM150100 35005KT P6SM BKN150
     FM150900 VRB04KT P6SM BKN150
     FM151400 17005KT P6SM SCT050 BKN130=

USA.gov is the U.S. government's official web portal to all federal, state and local government web resources and services.